This is the latest recevied weather packets stored in our database for station/object SP4MAZ-13. If no packets are shown the sender has not sent any weather packets the latest 10 day(s).
| Time | Temp. | Humidity | Pressure | Rain* | Wind** | Luminosity | Snow |
|---|---|---|---|---|---|---|---|
| 1777990761 | 16.11° C | 94% | 2147.4 hPa | - | - | - | - |
| 1777990458 | 16.11° C | 97% | 2147.4 hPa | - | - | - | - |
| 1777989850 | 16.11° C | 99% | 2147.4 hPa | - | - | - | - |
| 1777989547 | 16.67° C | 92% | 2147.4 hPa | - | - | - | - |
| 1777989246 | 17.22° C | 88% | 2147.4 hPa | - | - | - | - |
| 1777988943 | 16.67° C | 89% | 2147.4 hPa | - | - | - | - |
| 1777988639 | 16.67° C | 92% | 2147.4 hPa | - | - | - | - |
| 1777988336 | 16.67° C | 87% | 2147.4 hPa | - | - | - | - |
| 1777988033 | 16.67° C | 88% | 2147.4 hPa | - | - | - | - |
| 1777987729 | 16.67° C | 85% | 2147.4 hPa | - | - | - | - |
| 1777987426 | 17.22° C | 78% | 2147.4 hPa | - | - | - | - |
| 1777987122 | 17.78° C | 74% | 2147.4 hPa | - | - | - | - |
| 1777986818 | 17.22° C | 74% | 2147.4 hPa | - | - | - | - |
| 1777986515 | 16.67° C | 85% | 2147.4 hPa | - | - | - | - |
| 1777986211 | 16.67° C | 85% | 2147.4 hPa | - | - | - | - |
| 1777985910 | 16.67° C | 87% | 2147.4 hPa | - | - | - | - |
| 1777985609 | 16.11° C | 86% | 2147.4 hPa | - | - | - | - |
| 1777985305 | 17.22° C | 80% | 2147.4 hPa | - | - | - | - |
| 1777985002 | 17.22° C | 77% | 2147.4 hPa | - | - | - | - |
| 1777984699 | 17.78° C | 77% | 2147.4 hPa | - | - | - | - |
| 1777984395 | 17.78° C | 72% | 2147.4 hPa | - | - | - | - |
| 1777984094 | 18.89° C | 68% | 2147.4 hPa | - | - | - | - |
| 1777983793 | 18.33° C | 72% | 2147.4 hPa | - | - | - | - |
| 1777983490 | 18.33° C | 70% | 2147.4 hPa | - | - | - | - |
| 1777983187 | 17.78° C | 73% | 2147.4 hPa | - | - | - | - |
* Rain since midnight (hover to see other rain measurements)
** Current wind speed in m/s (hover to see current wind gust speed)